Time;durP1;ratioP1;P1;durP2;ratioP2;P2;SDS_P1;SDS_P2;PMS_P1;PMS_P2;Temp;Humidity;BMP_temperature;BMP_pressure;BME280_temperature;BME280_humidity;BME280_pressure;Samples;Min_cycle;Max_cycle;Signal;HPM_P1;HPM_P2
2022/06/07 00:01:32;;;;;;;2.13;1.08;;;23.10;99.90;;;;;;5031486;28;20200;-79
2022/06/07 00:03:59;;;;;;;1.50;1.30;;;23.10;99.90;;;;;;5037766;28;20227;-80
2022/06/07 00:06:29;;;;;;;1.27;1.17;;;23.10;99.90;;;;;;5027158;28;20200;-80
2022/06/07 00:14:59;;;;;;;2.10;1.38;;;23.10;99.90;;;;;;5000479;28;20224;-80
2022/06/07 00:17:26;;;;;;;3.10;1.80;;;23.00;99.90;;;;;;5025717;28;20243;-81
2022/06/07 00:19:53;;;;;;;3.53;1.92;;;22.90;99.90;;;;;;5032755;28;20303;-81
2022/06/07 00:22:21;;;;;;;2.65;1.80;;;22.90;99.90;;;;;;5027562;28;20215;-81
2022/06/07 00:24:49;;;;;;;2.90;2.00;;;22.80;99.90;;;;;;5030370;28;20320;-81
2022/06/07 00:27:16;;;;;;;1.60;1.50;;;22.80;99.90;;;;;;5026953;28;20761;-80
2022/06/07 00:29:46;;;;;;;1.65;1.55;;;22.70;99.90;;;;;;5030141;28;20188;-78
2022/06/07 00:32:19;;;;;;;2.50;1.42;;;22.60;99.90;;;;;;5025580;28;20216;-77
2022/06/07 02:05:49;;;;;;;2.35;1.65;;;20.20;99.90;;;;;;4836498;29;20233;-76
2022/06/07 02:15:52;;;;;;;1.73;1.50;;;19.90;99.90;;;;;;4890985;29;20235;-75
2022/06/07 02:19:01;;;;;;;3.50;1.52;;;19.80;99.90;;;;;;4960005;28;20313;-78
2022/06/07 02:25:53;;;;;;;1.55;1.27;;;19.60;99.90;;;;;;5023932;28;20226;-80
2022/06/07 02:46:14;;;;;;;3.55;2.15;;;19.20;99.90;;;;;;4912085;29;20605;-76
2022/06/07 02:49:11;;;;;;;3.35;1.90;;;18.90;99.90;;;;;;4891900;29;20257;-75
2022/06/07 02:54:22;;;;;;;2.60;1.83;;;18.50;99.90;;;;;;4988715;28;20243;-76
2022/06/07 02:57:00;;;;;;;2.97;2.00;;;18.50;99.90;;;;;;5025721;28;20658;-76
2022/06/07 02:59:28;;;;;;;1.50;1.40;;;18.70;99.90;;;;;;5030108;28;20214;-76
2022/06/07 03:01:55;;;;;;;1.77;1.50;;;18.90;99.90;;;;;;5030581;28;20196;-75
2022/06/07 03:04:23;;;;;;;1.92;1.48;;;19.00;99.90;;;;;;5029364;28;20227;-76
2022/06/07 03:06:50;;;;;;;1.65;1.25;;;19.10;99.90;;;;;;5023619;28;20208;-76
2022/06/07 03:09:17;;;;;;;2.10;1.30;;;19.20;99.90;;;;;;5041723;28;20208;-76
2022/06/07 03:11:44;;;;;;;1.55;1.45;;;19.10;99.90;;;;;;5032050;28;20199;-75
2022/06/07 03:14:11;;;;;;;2.60;1.50;;;19.10;99.90;;;;;;5024752;28;20235;-76
2022/06/07 03:16:40;;;;;;;1.88;1.70;;;19.00;99.90;;;;;;5028004;28;20561;-76
2022/06/07 03:19:07;;;;;;;1.75;1.63;;;19.00;99.90;;;;;;5028754;28;20230;-76
2022/06/07 03:21:34;;;;;;;1.70;1.60;;;19.00;99.90;;;;;;5030131;28;20203;-76
2022/06/07 03:24:01;;;;;;;2.10;1.45;;;19.00;99.90;;;;;;5027904;28;20226;-76
2022/06/07 03:26:29;;;;;;;1.65;1.30;;;19.00;99.90;;;;;;5028931;28;20195;-77
2022/06/07 03:28:57;;;;;;;3.03;1.90;;;19.10;99.90;;;;;;5030674;28;20305;-76
2022/06/07 03:31:24;;;;;;;1.80;1.70;;;19.10;99.90;;;;;;5029322;28;20722;-77
2022/06/07 03:33:53;;;;;;;2.97;1.63;;;19.10;99.90;;;;;;5027628;28;20760;-77
2022/06/07 03:36:23;;;;;;;2.20;2.10;;;19.10;99.90;;;;;;5031310;28;20237;-77
2022/06/07 03:38:50;;;;;;;1.92;1.77;;;19.10;99.90;;;;;;5025103;28;20580;-76
2022/06/07 03:41:20;;;;;;;5.07;1.85;;;19.10;99.90;;;;;;5026988;28;20195;-77
2022/06/07 03:43:47;;;;;;;2.00;1.63;;;19.20;99.90;;;;;;5026492;28;20238;-77
2022/06/07 03:46:16;;;;;;;1.92;1.50;;;19.20;99.90;;;;;;5031472;28;20219;-77
2022/06/07 03:48:45;;;;;;;1.60;1.50;;;19.20;99.90;;;;;;5031117;28;20222;-76
2022/06/07 03:51:16;;;;;;;3.20;1.70;;;19.30;99.90;;;;;;5027154;28;20200;-74
2022/06/07 03:53:44;;;;;;;1.23;1.13;;;19.30;99.90;;;;;;5028694;28;20215;-75
2022/06/07 03:56:12;;;;;;;1.40;1.30;;;19.30;99.90;;;;;;5032284;28;20215;-76
2022/06/07 03:58:40;;;;;;;2.17;1.60;;;19.30;99.90;;;;;;5031929;28;20212;-76
2022/06/07 04:01:09;;;;;;;1.65;1.55;;;19.20;99.90;;;;;;5041746;28;20206;-77
2022/06/07 04:03:36;;;;;;;2.53;1.60;;;19.10;99.90;;;;;;5032652;28;20219;-76
2022/06/07 04:06:04;;;;;;;1.80;1.70;;;19.00;99.90;;;;;;5033170;28;20771;-79
2022/06/07 04:08:33;;;;;;;2.47;1.70;;;19.00;99.90;;;;;;5030364;28;20315;-76
2022/06/07 04:11:02;;;;;;;1.70;1.60;;;18.80;99.90;;;;;;5030945;28;20202;-76
2022/06/07 04:13:34;;;;;;;2.05;1.90;;;18.70;99.90;;;;;;5030009;28;20238;-79
2022/06/07 04:16:06;;;;;;;1.88;1.77;;;18.50;99.90;;;;;;5033443;28;20212;-79
2022/06/07 04:18:33;;;;;;;2.17;1.42;;;18.40;99.90;;;;;;5031870;28;20242;-77
2022/06/07 04:21:01;;;;;;;1.58;1.45;;;18.30;99.90;;;;;;5026978;28;20216;-78
2022/06/07 04:23:29;;;;;;;2.58;1.63;;;18.40;99.90;;;;;;5035316;28;20306;-77
2022/06/07 04:25:57;;;;;;;2.10;1.77;;;18.40;99.90;;;;;;5028603;28;20231;-76
2022/06/07 04:28:24;;;;;;;1.55;1.45;;;18.50;99.90;;;;;;5024048;28;20223;-77
2022/06/07 04:30:51;;;;;;;1.92;1.65;;;18.50;99.90;;;;;;5027581;28;20259;-76
2022/06/07 04:33:18;;;;;;;2.42;1.55;;;18.50;99.90;;;;;;5031671;28;20216;-76
2022/06/07 04:35:46;;;;;;;2.40;1.80;;;18.60;99.90;;;;;;5025482;28;20220;-77
2022/06/07 04:38:14;;;;;;;2.17;1.98;;;18.60;99.90;;;;;;5031423;28;20249;-77
2022/06/07 04:40:42;;;;;;;1.67;1.58;;;18.60;99.90;;;;;;5027283;28;20598;-75
2022/06/07 04:43:11;;;;;;;1.90;1.70;;;18.50;99.90;;;;;;5034352;28;20226;-76
2022/06/07 04:45:39;;;;;;;1.50;1.40;;;18.40;99.90;;;;;;5036843;28;20211;-79
2022/06/07 04:48:07;;;;;;;1.55;1.45;;;18.40;99.90;;;;;;5033484;28;20227;-76
2022/06/07 04:50:35;;;;;;;2.22;1.63;;;18.40;99.90;;;;;;5033606;28;20196;-76
2022/06/07 04:53:02;;;;;;;2.58;1.70;;;18.40;99.90;;;;;;5030237;28;20702;-76
2022/06/07 04:55:29;;;;;;;1.55;1.45;;;18.30;99.90;;;;;;5030678;28;20231;-77
2022/06/07 04:57:56;;;;;;;2.28;1.63;;;18.10;99.90;;;;;;5036582;28;20701;-78
2022/06/07 05:00:25;;;;;;;7.82;2.17;;;18.10;99.90;;;;;;5031893;28;20223;-76
2022/06/07 05:02:53;;;;;;;2.08;1.50;;;18.10;99.90;;;;;;5039820;28;20200;-76
2022/06/07 05:05:21;;;;;;;1.75;1.60;;;18.00;99.90;;;;;;5024766;28;20227;-75
2022/06/07 05:07:48;;;;;;;2.58;1.73;;;17.80;99.90;;;;;;5032066;28;20202;-76
2022/06/07 05:10:16;;;;;;;1.85;1.75;;;17.70;99.90;;;;;;5032887;28;20207;-77
2022/06/07 05:12:44;;;;;;;1.27;1.20;;;17.80;99.90;;;;;;5036157;28;20200;-76
2022/06/07 05:15:12;;;;;;;2.35;1.40;;;17.90;99.90;;;;;;5032122;28;20606;-75
2022/06/07 05:17:41;;;;;;;1.33;1.23;;;18.00;99.90;;;;;;5029865;28;20219;-76
2022/06/07 05:20:09;;;;;;;1.15;1.10;;;18.00;99.90;;;;;;5028414;28;20220;-75
2022/06/07 05:22:36;;;;;;;1.10;1.10;;;18.10;99.90;;;;;;5030920;28;20202;-77
2022/06/07 05:25:04;;;;;;;1.40;1.25;;;18.10;99.90;;;;;;5032423;28;20714;-76
2022/06/07 05:27:38;;;;;;;1.35;1.25;;;18.10;99.90;;;;;;5030436;28;20202;-76
2022/06/07 05:30:07;;;;;;;1.33;1.23;;;18.00;99.90;;;;;;5027754;28;20231;-76
2022/06/07 05:32:34;;;;;;;9.00;1.73;;;17.90;99.90;;;;;;5039520;28;20250;-76
2022/06/07 05:35:05;;;;;;;64.03;3.78;;;17.90;99.90;;;;;;5028696;28;20223;-76
2022/06/07 05:37:34;;;;;;;1.40;1.30;;;17.80;99.90;;;;;;5033694;28;20286;-75
2022/06/07 05:40:02;;;;;;;1.25;1.20;;;17.70;99.90;;;;;;5025758;28;20230;-76
2022/06/07 05:42:29;;;;;;;1.75;1.20;;;17.40;99.90;;;;;;5035225;28;20663;-76
2022/06/07 05:44:57;;;;;;;1.05;1.00;;;17.20;99.90;;;;;;5035432;28;20231;-81
2022/06/07 05:47:25;;;;;;;2.08;0.88;;;17.00;99.90;;;;;;5026981;28;20225;-83
2022/06/07 05:49:52;;;;;;;0.70;0.70;;;16.90;99.90;;;;;;5033753;28;20374;-81
2022/06/07 05:52:20;;;;;;;0.88;0.85;;;16.90;99.90;;;;;;5032685;28;20641;-77
2022/06/07 05:54:47;;;;;;;1.10;1.02;;;17.00;99.90;;;;;;5033095;28;20561;-79
2022/06/07 05:57:14;;;;;;;0.95;0.80;;;17.10;99.90;;;;;;5030537;28;20558;-80
2022/06/07 05:59:41;;;;;;;0.70;0.70;;;17.10;99.90;;;;;;5034096;28;20219;-75
2022/06/07 06:02:11;;;;;;;0.65;0.65;;;17.20;99.90;;;;;;5032762;28;20191;-77
2022/06/07 06:04:38;;;;;;;1.00;0.80;;;17.20;99.90;;;;;;5022995;28;20234;-80
2022/06/07 06:07:05;;;;;;;1.13;1.00;;;17.20;99.90;;;;;;5034090;28;20697;-77
2022/06/07 06:12:21;;;;;;;1.13;0.90;;;17.10;99.90;;;;;;5029334;28;20202;-77
2022/06/07 06:14:48;;;;;;;1.42;1.20;;;17.10;99.90;;;;;;5034432;28;20230;-80
2022/06/07 06:17:15;;;;;;;1.17;1.08;;;17.00;99.90;;;;;;5031228;28;20199;-78
2022/06/07 06:19:42;;;;;;;1.05;1.00;;;17.00;99.90;;;;;;5024748;28;20219;-77
2022/06/07 06:22:10;;;;;;;1.02;0.93;;;17.00;99.90;;;;;;5028011;28;20205;-79
2022/06/07 06:24:39;;;;;;;1.45;0.90;;;17.00;99.90;;;;;;5024773;28;20216;-78
2022/06/07 06:27:06;;;;;;;1.95;1.02;;;17.00;99.90;;;;;;5030264;28;20199;-82
2022/06/07 06:29:34;;;;;;;1.30;1.20;;;17.00;99.90;;;;;;5028620;28;20227;-78
2022/06/07 06:32:01;;;;;;;1.42;1.27;;;17.00;99.90;;;;;;5025124;28;20263;-78
2022/06/07 06:34:29;;;;;;;1.65;1.20;;;16.90;99.90;;;;;;5021486;28;20223;-78
2022/06/07 06:36:57;;;;;;;1.30;1.05;;;16.80;99.90;;;;;;5033840;28;20203;-78
2022/06/07 06:39:25;;;;;;;1.27;1.17;;;16.80;99.90;;;;;;5024287;28;20945;-77
2022/06/07 06:41:53;;;;;;;1.02;1.02;;;16.80;99.90;;;;;;5028444;28;20199;-77
2022/06/07 06:44:20;;;;;;;1.10;1.00;;;16.90;99.90;;;;;;5030772;28;20226;-78
2022/06/07 06:46:49;;;;;;;0.90;0.90;;;17.00;99.90;;;;;;5033650;28;20211;-78
2022/06/07 06:49:18;;;;;;;2.00;1.02;;;17.20;99.90;;;;;;5021043;28;20222;-75
2022/06/07 06:51:47;;;;;;;2.20;1.08;;;17.30;99.90;;;;;;5024453;28;20788;-77
2022/06/07 06:54:16;;;;;;;0.90;0.90;;;17.40;99.90;;;;;;5025960;28;20271;-76
2022/06/07 06:56:44;;;;;;;1.13;1.00;;;17.40;99.90;;;;;;5034205;28;20202;-75
2022/06/07 06:59:13;;;;;;;0.98;0.98;;;17.40;99.90;;;;;;5023944;28;20239;-76
2022/06/07 07:01:42;;;;;;;2.65;1.00;;;17.50;99.90;;;;;;5030465;28;20329;-77
2022/06/07 07:04:13;;;;;;;0.80;0.80;;;17.60;99.90;;;;;;5025465;28;20219;-78
2022/06/07 07:06:40;;;;;;;0.88;0.88;;;17.80;99.90;;;;;;5056339;22;20225;-75
2022/06/07 07:09:09;;;;;;;0.95;0.95;;;17.90;99.90;;;;;;5043708;28;20534;-75
2022/06/07 07:11:38;;;;;;;0.70;0.70;;;17.90;99.90;;;;;;5049201;28;20191;-75
2022/06/07 07:14:07;;;;;;;1.10;1.10;;;18.00;99.90;;;;;;5053396;28;20218;-77
2022/06/07 07:16:39;;;;;;;1.02;0.93;;;18.10;99.90;;;;;;5053207;28;20226;-77
2022/06/07 07:19:06;;;;;;;1.15;0.80;;;18.20;99.90;;;;;;5053430;28;20260;-75
2022/06/07 07:21:35;;;;;;;0.80;0.80;;;18.20;99.90;;;;;;5055203;28;20225;-76
2022/06/07 07:24:03;;;;;;;0.80;0.80;;;18.30;99.90;;;;;;5048307;28;20362;-75
2022/06/07 07:26:32;;;;;;;0.85;0.85;;;18.30;99.90;;;;;;5044922;28;20214;-77
2022/06/07 07:29:00;;;;;;;1.08;0.80;;;18.40;99.90;;;;;;5049716;28;20219;-74
2022/06/07 07:31:30;;;;;;;0.82;0.70;;;18.40;99.90;;;;;;5053331;28;20703;-75
2022/06/07 07:33:59;;;;;;;0.80;0.80;;;18.30;99.90;;;;;;5049604;28;20218;-75
2022/06/07 07:36:28;;;;;;;3.03;1.00;;;18.40;99.90;;;;;;5052378;28;20215;-75
2022/06/07 07:38:56;;;;;;;1.25;1.05;;;18.50;99.90;;;;;;5048484;28;20219;-76
2022/06/07 07:41:27;;;;;;;0.70;0.70;;;18.60;99.90;;;;;;5053037;28;20226;-74
2022/06/07 07:43:56;;;;;;;1.15;0.70;;;18.60;99.90;;;;;;5050374;28;20706;-73
2022/06/07 07:46:26;;;;;;;0.60;0.60;;;18.70;99.90;;;;;;5046969;28;20804;-74
2022/06/07 07:48:53;;;;;;;0.70;0.70;;;18.60;99.90;;;;;;5050928;28;20308;-76
2022/06/07 07:51:23;;;;;;;0.95;0.77;;;18.50;99.90;;;;;;5051762;28;20195;-73
2022/06/07 07:53:51;;;;;;;0.60;0.60;;;18.50;99.90;;;;;;5055670;28;20247;-74
2022/06/07 07:56:18;;;;;;;0.75;0.75;;;18.40;99.90;;;;;;5051477;28;20726;-76
2022/06/07 07:58:45;;;;;;;1.00;0.90;;;18.50;99.90;;;;;;5053364;28;20218;-76
2022/06/07 08:01:18;;;;;;;0.80;0.80;;;18.50;99.90;;;;;;5058038;28;20941;-77
2022/06/07 08:03:46;;;;;;;1.17;1.10;;;18.70;99.90;;;;;;5058397;28;20638;-75
2022/06/07 08:06:15;;;;;;;1.27;1.00;;;18.80;99.90;;;;;;5053816;28;20230;-75
2022/06/07 08:08:45;;;;;;;1.23;1.13;;;18.80;99.90;;;;;;5049851;28;20230;-77
2022/06/07 08:11:13;;;;;;;1.30;0.90;;;18.80;99.90;;;;;;5053764;28;20206;-76
2022/06/07 08:13:42;;;;;;;5.20;0.93;;;19.00;99.90;;;;;;5048060;28;20223;-76
2022/06/07 08:16:09;;;;;;;1.00;0.90;;;19.30;99.90;;;;;;5053234;28;20936;-75
2022/06/07 08:18:37;;;;;;;0.60;0.60;;;19.60;99.90;;;;;;5054959;28;20205;-75
2022/06/07 08:21:07;;;;;;;1.27;1.00;;;19.90;99.90;;;;;;5052247;28;20972;-75
2022/06/07 08:23:36;;;;;;;1.00;0.70;;;20.00;99.90;;;;;;5053538;28;20314;-77
2022/06/07 08:26:07;;;;;;;2.00;0.80;;;20.00;99.90;;;;;;5054903;28;20211;-75
2022/06/07 08:28:35;;;;;;;1.23;0.90;;;20.00;99.90;;;;;;5048312;28;20612;-74
2022/06/07 08:31:04;;;;;;;0.90;0.70;;;20.10;99.90;;;;;;5048509;28;20225;-74
2022/06/07 08:39:05;;;;;;;0.80;0.80;;;20.40;99.90;;;;;;5050075;28;20744;-74
2022/06/07 08:41:38;;;;;;;0.70;0.70;;;20.50;99.90;;;;;;5046275;28;20223;-74
2022/06/07 08:44:09;;;;;;;1.08;1.05;;;20.50;99.90;;;;;;5050008;28;20214;-73
2022/06/07 08:46:38;;;;;;;2.42;0.98;;;20.50;99.90;;;;;;5041937;28;20310;-72
2022/06/07 08:49:08;;;;;;;1.10;0.75;;;20.60;99.90;;;;;;5049057;28;20264;-73
2022/06/07 08:51:45;;;;;;;1.33;0.80;;;20.70;99.90;;;;;;5047578;28;20187;-73
2022/06/07 08:54:17;;;;;;;0.65;0.65;;;20.70;99.90;;;;;;5038616;28;20289;-72
2022/06/07 08:56:47;;;;;;;0.80;0.80;;;20.80;99.90;;;;;;5042640;28;20227;-74
2022/06/07 08:59:17;;;;;;;1.60;1.05;;;21.00;99.90;;;;;;5041540;28;20650;-72
2022/06/07 09:01:51;;;;;;;0.95;0.90;;;21.00;99.90;;;;;;5040146;28;20643;-72
2022/06/07 09:04:21;;;;;;;1.13;0.80;;;21.00;99.90;;;;;;5045564;28;20199;-72
2022/06/07 09:06:50;;;;;;;1.00;0.80;;;21.00;99.90;;;;;;5045736;28;20730;-72
2022/06/07 09:09:20;;;;;;;1.10;0.90;;;21.20;99.90;;;;;;5049649;28;20282;-71
2022/06/07 09:12:10;;;;;;;1.48;1.00;;;21.60;99.90;;;;;;5051085;28;20319;-72
2022/06/07 09:14:46;;;;;;;1.30;0.82;;;21.70;99.90;;;;;;5045882;28;20191;-72
2022/06/07 09:17:16;;;;;;;2.30;0.82;;;21.60;99.90;;;;;;5044341;28;20737;-72
2022/06/07 09:19:45;;;;;;;0.80;0.80;;;21.40;99.90;;;;;;5041908;28;20583;-71
2022/06/07 09:22:19;;;;;;;0.82;0.82;;;21.50;99.90;;;;;;5039284;28;20237;-71
2022/06/07 09:24:56;;;;;;;1.10;0.80;;;21.50;99.90;;;;;;5044091;28;20202;-72
2022/06/07 09:27:27;;;;;;;1.92;0.90;;;21.60;99.90;;;;;;5043118;28;20245;-72
2022/06/07 09:29:56;;;;;;;2.33;1.08;;;21.70;99.90;;;;;;5043435;28;20268;-72
2022/06/07 09:32:25;;;;;;;1.02;0.88;;;21.90;99.90;;;;;;5043248;28;20226;-72
2022/06/07 09:34:57;;;;;;;0.85;0.63;;;22.10;99.90;;;;;;5047246;28;20195;-73
2022/06/07 09:37:30;;;;;;;3.38;1.02;;;22.20;99.90;;;;;;5043859;28;20229;-73
2022/06/07 09:40:19;;;;;;;1.00;0.80;;;22.30;99.90;;;;;;5045117;28;20199;-75
2022/06/07 09:42:54;;;;;;;1.13;0.82;;;22.40;99.90;;;;;;5047464;28;20218;-72
2022/06/07 09:45:28;;;;;;;2.13;0.90;;;22.70;99.90;;;;;;5047969;28;20202;-72
2022/06/07 09:47:56;;;;;;;5.75;0.85;;;23.00;99.90;;;;;;5049502;28;20225;-71
2022/06/07 09:50:26;;;;;;;0.93;0.80;;;23.10;99.90;;;;;;5043758;28;20199;-73
2022/06/07 09:52:57;;;;;;;0.60;0.60;;;23.10;99.90;;;;;;5045921;28;20219;-73
2022/06/07 09:55:31;;;;;;;1.20;1.10;;;23.00;99.90;;;;;;5043143;28;20438;-73
2022/06/07 09:58:17;;;;;;;0.60;0.60;;;22.90;99.90;;;;;;5043492;28;20321;-74
2022/06/07 10:00:50;;;;;;;0.82;0.80;;;22.70;99.90;;;;;;5042658;28;20321;-75
2022/06/07 10:03:29;;;;;;;1.52;0.70;;;22.60;99.90;;;;;;5044841;28;20726;-73
2022/06/07 10:06:12;;;;;;;0.93;0.80;;;22.60;99.90;;;;;;5047299;28;20226;-74
2022/06/07 10:08:56;;;;;;;0.73;0.70;;;22.80;99.90;;;;;;5049256;28;20213;-74
2022/06/07 10:11:29;;;;;;;1.70;0.90;;;22.90;99.90;;;;;;5043418;28;20202;-73
2022/06/07 10:14:34;;;;;;;0.63;0.63;;;22.90;99.90;;;;;;5042784;28;20220;-72
2022/06/07 10:17:36;;;;;;;2.58;0.80;;;22.70;99.90;;;;;;5044256;28;20660;-74
2022/06/07 10:20:10;;;;;;;2.13;0.98;;;22.50;99.90;;;;;;5047754;28;20572;-73
2022/06/07 10:22:55;;;;;;;0.80;0.80;;;22.40;99.90;;;;;;5045365;28;20217;-73
2022/06/07 10:25:29;;;;;;;1.35;0.80;;;22.40;99.90;;;;;;5047378;28;20620;-70
2022/06/07 10:28:04;;;;;;;0.70;0.70;;;22.30;99.90;;;;;;5047403;28;20226;-72
2022/06/07 10:30:41;;;;;;;1.30;0.70;;;22.10;99.90;;;;;;5048639;28;20198;-74
2022/06/07 10:33:33;;;;;;;0.93;0.85;;;22.00;99.90;;;;;;5039933;28;20214;-73
2022/06/07 10:36:10;;;;;;;1.33;0.90;;;21.90;99.90;;;;;;5046926;28;20246;-72
2022/06/07 10:38:58;;;;;;;1.52;1.20;;;21.70;99.90;;;;;;5055411;28;20899;-71
2022/06/07 10:41:32;;;;;;;1.27;0.85;;;21.70;99.90;;;;;;5050336;28;20273;-73
2022/06/07 10:44:07;;;;;;;1.73;1.00;;;21.80;99.90;;;;;;5039992;28;20655;-73
2022/06/07 10:46:42;;;;;;;2.22;1.20;;;22.00;99.90;;;;;;5044618;28;20244;-74
2022/06/07 10:49:23;;;;;;;0.70;0.65;;;22.20;99.90;;;;;;5041172;28;20215;-73
2022/06/07 10:54:48;;;;;;;0.70;0.70;;;22.10;99.90;;;;;;5040032;28;20996;-72
2022/06/07 10:57:21;;;;;;;1.52;0.90;;;22.20;99.90;;;;;;5041489;28;20230;-72
2022/06/07 10:59:51;;;;;;;1.10;1.00;;;22.30;99.90;;;;;;5041466;28;20225;-73
2022/06/07 11:02:27;;;;;;;0.65;0.65;;;22.20;99.90;;;;;;5042243;28;20238;-72
2022/06/07 11:10:38;;;;;;;1.48;0.82;;;21.60;99.90;;;;;;5044343;28;20262;-72
2022/06/07 11:13:17;;;;;;;2.35;0.80;;;21.40;99.90;;;;;;5044338;28;20895;-73
2022/06/07 11:15:52;;;;;;;2.38;1.10;;;21.30;99.90;;;;;;5046023;28;20831;-74
2022/06/07 11:18:24;;;;;;;2.45;0.90;;;21.20;99.90;;;;;;5043833;28;20194;-70
2022/06/07 11:21:11;;;;;;;1.40;1.20;;;21.20;99.90;;;;;;5046184;28;20309;-71
2022/06/07 11:23:45;;;;;;;1.98;1.50;;;21.20;99.90;;;;;;5044943;28;20192;-71
2022/06/07 11:26:15;;;;;;;2.30;1.52;;;21.20;99.90;;;;;;5043353;28;20244;-71
2022/06/07 11:28:47;;;;;;;1.38;1.20;;;21.20;99.90;;;;;;5044210;28;20456;-71
2022/06/07 11:31:40;;;;;;;1.67;0.95;;;21.30;99.90;;;;;;5046615;28;20230;-70
2022/06/07 11:34:23;;;;;;;0.75;0.75;;;21.30;99.90;;;;;;5044402;28;20256;-70
2022/06/07 11:36:51;;;;;;;2.75;0.93;;;21.20;99.90;;;;;;5045358;28;20254;-70
2022/06/07 11:39:52;;;;;;;3.63;0.80;;;21.10;99.90;;;;;;5044033;28;20265;-70
2022/06/07 11:42:30;;;;;;;0.80;0.80;;;21.30;99.90;;;;;;5041247;28;20261;-69
2022/06/07 11:45:20;;;;;;;0.70;0.70;;;21.30;99.90;;;;;;5039868;28;20195;-70
2022/06/07 11:48:13;;;;;;;0.80;0.68;;;21.40;99.90;;;;;;5039217;28;20227;-70
2022/06/07 11:50:46;;;;;;;0.70;0.70;;;21.30;99.90;;;;;;5025430;28;20640;-70
2022/06/07 11:53:27;;;;;;;0.60;0.60;;;21.20;99.90;;;;;;5041699;28;20241;-70
2022/06/07 11:56:03;;;;;;;0.52;0.50;;;20.90;99.90;;;;;;5039788;28;20310;-70
2022/06/07 11:58:53;;;;;;;0.82;0.77;;;20.60;99.90;;;;;;5041454;28;20218;-70
2022/06/07 12:01:35;;;;;;;0.73;0.70;;;20.60;99.90;;;;;;5039501;28;20228;-70
2022/06/07 12:04:31;;;;;;;0.88;0.60;;;20.70;99.90;;;;;;5043027;28;20202;-71
2022/06/07 12:07:06;;;;;;;0.65;0.50;;;20.40;99.90;;;;;;5046339;28;20223;-73
2022/06/07 12:09:35;;;;;;;0.50;0.50;;;20.20;99.90;;;;;;5045732;28;20198;-74
2022/06/07 12:12:18;;;;;;;1.17;0.65;;;20.10;99.90;;;;;;5040436;28;20751;-71
2022/06/07 12:14:49;;;;;;;0.60;0.60;;;20.10;99.90;;;;;;5039803;28;20199;-71
2022/06/07 12:17:25;;;;;;;0.55;0.55;;;19.90;99.90;;;;;;5040318;28;20214;-71
2022/06/07 12:19:52;;;;;;;0.50;0.50;;;19.60;99.90;;;;;;5036716;28;20292;-72
2022/06/07 12:22:23;;;;;;;2.22;0.45;;;19.30;99.90;;;;;;5040386;28;20264;-72
2022/06/07 12:24:55;;;;;;;1.25;0.75;;;19.10;99.90;;;;;;5043231;28;20577;-72
2022/06/07 12:27:26;;;;;;;1.17;0.50;;;18.90;99.90;;;;;;5038598;28;20230;-72
2022/06/07 12:29:55;;;;;;;0.52;0.52;;;18.60;99.90;;;;;;5047012;28;20214;-72
2022/06/07 12:32:26;;;;;;;0.40;0.40;;;18.40;99.90;;;;;;5047736;28;20214;-72
2022/06/07 12:35:06;;;;;;;1.02;0.50;;;18.20;99.90;;;;;;5053819;28;20252;-74
2022/06/07 12:37:36;;;;;;;0.60;0.60;;;18.00;99.90;;;;;;5045898;28;20266;-73
2022/06/07 12:40:04;;;;;;;0.40;0.40;;;17.90;99.90;;;;;;5052362;28;20282;-73
2022/06/07 12:42:33;;;;;;;0.50;0.50;;;17.90;99.90;;;;;;5048963;28;20558;-73
2022/06/07 12:45:04;;;;;;;0.43;0.43;;;17.80;99.90;;;;;;5049461;28;20195;-73
2022/06/07 12:47:39;;;;;;;0.50;0.50;;;17.80;99.90;;;;;;5048847;28;20910;-73
2022/06/07 12:50:19;;;;;;;0.73;0.60;;;17.80;99.90;;;;;;5050250;28;20198;-74
2022/06/07 12:52:53;;;;;;;0.68;0.68;;;18.00;99.90;;;;;;5047097;28;20228;-73
2022/06/07 12:55:24;;;;;;;0.50;0.50;;;18.10;99.90;;;;;;5045520;28;20645;-73
2022/06/07 12:57:55;;;;;;;0.57;0.57;;;18.30;99.90;;;;;;5054101;28;20538;-73
2022/06/07 13:00:25;;;;;;;0.50;0.50;;;18.30;99.90;;;;;;5050812;28;20562;-73
2022/06/07 13:02:55;;;;;;;1.35;0.50;;;18.40;99.90;;;;;;5049523;28;20239;-74
2022/06/07 13:05:26;;;;;;;0.68;0.50;;;18.40;99.90;;;;;;5053308;28;20240;-73
2022/06/07 13:07:56;;;;;;;0.50;0.50;;;18.40;99.90;;;;;;5070255;23;20401;-77
2022/06/07 13:10:27;;;;;;;0.50;0.50;;;18.40;99.90;;;;;;5047319;28;20905;-75
2022/06/07 13:12:57;;;;;;;0.60;0.55;;;18.20;99.90;;;;;;5048562;28;20254;-74
2022/06/07 13:15:27;;;;;;;0.50;0.50;;;18.20;99.90;;;;;;5061286;28;20251;-75
2022/06/07 13:18:00;;;;;;;0.40;0.40;;;18.10;99.90;;;;;;5064697;28;20348;-77
2022/06/07 13:20:30;;;;;;;0.50;0.50;;;18.00;99.90;;;;;;5063604;28;20190;-74
2022/06/07 13:22:59;;;;;;;0.40;0.40;;;18.20;99.90;;;;;;5064207;28;20214;-75
2022/06/07 13:25:29;;;;;;;0.40;0.40;;;18.30;99.90;;;;;;5063213;28;20226;-76
2022/06/07 13:28:07;;;;;;;0.47;0.47;;;18.50;99.90;;;;;;5061008;28;20278;-76
2022/06/07 13:30:41;;;;;;;0.40;0.40;;;18.60;99.90;;;;;;5063881;28;20244;-78
2022/06/07 13:33:30;;;;;;;0.50;0.50;;;18.70;99.90;;;;;;5061478;28;20357;-79
2022/06/07 13:36:00;;;;;;;0.50;0.50;;;18.80;99.90;;;;;;5061216;28;20246;-77
2022/06/07 13:38:33;;;;;;;0.50;0.50;;;18.70;99.90;;;;;;5062638;28;20222;-75
2022/06/07 13:41:06;;;;;;;0.40;0.40;;;18.80;99.90;;;;;;5055650;28;20246;-78
2022/06/07 13:43:36;;;;;;;0.60;0.60;;;18.90;99.90;;;;;;5063801;28;20213;-77
2022/06/07 13:46:06;;;;;;;0.40;0.40;;;19.00;99.90;;;;;;5063340;28;20218;-77
2022/06/07 13:54:22;;;;;;;0.60;0.60;;;18.90;99.90;;;;;;5020403;28;20728;-78
2022/06/07 13:56:50;;;;;;;0.60;0.55;;;18.90;99.90;;;;;;5053314;28;20202;-77
2022/06/07 13:59:18;;;;;;;0.40;0.40;;;18.90;99.90;;;;;;5062139;28;20711;-77
2022/06/07 14:01:48;;;;;;;1.00;0.50;;;18.90;99.90;;;;;;5063938;28;20225;-79
2022/06/07 14:04:22;;;;;;;0.40;0.40;;;18.80;99.90;;;;;;5062608;28;20749;-76
2022/06/07 14:06:51;;;;;;;0.50;0.50;;;18.70;99.90;;;;;;5063812;28;20194;-78
2022/06/07 14:09:22;;;;;;;0.40;0.40;;;18.60;99.90;;;;;;5062491;28;20704;-76
2022/06/07 14:11:52;;;;;;;0.40;0.40;;;18.60;99.90;;;;;;5062880;28;20198;-77
2022/06/07 14:14:19;;;;;;;0.30;0.30;;;18.60;99.90;;;;;;5062816;28;20198;-77
2022/06/07 14:16:50;;;;;;;0.40;0.40;;;18.60;99.90;;;;;;5063544;28;20198;-78
2022/06/07 14:19:22;;;;;;;0.40;0.40;;;18.70;99.90;;;;;;5062137;28;20631;-78
2022/06/07 14:21:51;;;;;;;0.40;0.40;;;18.80;99.90;;;;;;5061998;28;20710;-76
2022/06/07 14:24:23;;;;;;;0.40;0.40;;;18.90;99.90;;;;;;5062331;28;20625;-78
2022/06/07 14:26:51;;;;;;;1.23;0.60;;;18.90;99.90;;;;;;5063234;28;20194;-78
2022/06/07 14:29:19;;;;;;;0.70;0.57;;;18.70;99.90;;;;;;5063039;28;20708;-78
2022/06/07 14:31:48;;;;;;;0.63;0.63;;;18.50;99.90;;;;;;5062219;28;20259;-78
2022/06/07 14:34:18;;;;;;;0.60;0.60;;;18.30;99.90;;;;;;5061353;28;20310;-78
2022/06/07 14:36:46;;;;;;;0.65;0.52;;;18.20;99.90;;;;;;5062135;28;20190;-76
2022/06/07 14:39:19;;;;;;;1.08;0.63;;;18.20;99.90;;;;;;5061858;28;20804;-79
2022/06/07 14:41:47;;;;;;;0.50;0.50;;;18.20;99.90;;;;;;5060201;28;20289;-78
2022/06/07 14:44:16;;;;;;;3.70;0.90;;;18.20;99.90;;;;;;5061476;28;20202;-79
2022/06/07 14:46:44;;;;;;;0.63;0.63;;;18.20;99.90;;;;;;5063683;28;20195;-77
2022/06/07 14:49:17;;;;;;;1.10;0.65;;;18.20;99.90;;;;;;5061706;28;20708;-79
2022/06/07 14:51:45;;;;;;;0.50;0.50;;;18.20;99.90;;;;;;5062434;28;20294;-79
2022/06/07 14:54:21;;;;;;;1.63;0.70;;;18.20;99.90;;;;;;5060936;28;20227;-78
2022/06/07 14:56:50;;;;;;;1.25;0.63;;;18.20;99.90;;;;;;5063037;28;20221;-78
2022/06/07 14:59:18;;;;;;;1.83;0.82;;;18.20;99.90;;;;;;5061450;28;20593;-77
2022/06/07 15:01:47;;;;;;;0.55;0.55;;;18.20;99.90;;;;;;5062256;28;20645;-78
2022/06/07 15:04:18;;;;;;;1.92;0.73;;;18.20;99.90;;;;;;5061746;28;20305;-80
2022/06/07 15:06:46;;;;;;;0.93;0.50;;;18.20;99.90;;;;;;5062838;28;20281;-78
2022/06/07 15:09:16;;;;;;;1.45;0.63;;;18.20;99.90;;;;;;5061588;28;20348;-77
2022/06/07 15:11:46;;;;;;;0.60;0.60;;;18.10;99.90;;;;;;5058641;28;20202;-78
2022/06/07 15:14:13;;;;;;;0.60;0.60;;;18.00;99.90;;;;;;5061367;28;20271;-78
2022/06/07 15:16:44;;;;;;;0.80;0.70;;;18.00;99.90;;;;;;5061435;28;20232;-77
2022/06/07 15:19:16;;;;;;;0.60;0.60;;;18.00;99.90;;;;;;5060228;28;20210;-77
2022/06/07 15:21:46;;;;;;;0.57;0.57;;;18.10;99.90;;;;;;5055471;28;20305;-77
2022/06/07 15:24:15;;;;;;;0.50;0.50;;;18.10;99.90;;;;;;5060173;28;21600;-78
2022/06/07 15:26:43;;;;;;;0.60;0.60;;;18.10;99.90;;;;;;5060008;28;20218;-79
2022/06/07 15:29:12;;;;;;;1.02;0.60;;;18.10;99.90;;;;;;5060199;28;20218;-77
2022/06/07 15:31:41;;;;;;;0.65;0.60;;;18.10;99.90;;;;;;5060080;28;20648;-79
2022/06/07 15:34:11;;;;;;;0.75;0.60;;;18.20;99.90;;;;;;5064276;28;20252;-79
2022/06/07 15:36:41;;;;;;;0.63;0.60;;;18.10;99.90;;;;;;5066007;28;20315;-78
2022/06/07 15:39:14;;;;;;;0.50;0.50;;;18.20;99.90;;;;;;5063883;28;20703;-78
2022/06/07 15:44:27;;;;;;;0.40;0.40;;;18.40;99.90;;;;;;5063267;28;20221;-79